sensor_id;sensor_type;location;lat;lon;timestamp;P1;durP1;ratioP1;P2;durP2;ratioP2
75285;SDS011;63879;46.064;14.532;2023-02-03T07:00:27;26.20;;;14.93;;
75285;SDS011;63879;46.064;14.532;2023-02-03T07:02:53;30.13;;;13.40;;
75285;SDS011;63879;46.064;14.532;2023-02-03T07:05:20;25.17;;;13.77;;
75285;SDS011;63879;46.064;14.532;2023-02-03T07:07:46;22.92;;;12.27;;
75285;SDS011;63879;46.064;14.532;2023-02-03T07:10:11;25.23;;;13.20;;
75285;SDS011;63879;46.064;14.532;2023-02-03T07:12:36;26.95;;;13.77;;
75285;SDS011;63879;46.064;14.532;2023-02-03T07:15:02;25.60;;;14.02;;
75285;SDS011;63879;46.064;14.532;2023-02-03T07:17:28;23.33;;;12.85;;
75285;SDS011;63879;46.064;14.532;2023-02-03T07:19:54;25.33;;;13.80;;
75285;SDS011;63879;46.064;14.532;2023-02-03T07:22:19;21.38;;;13.50;;
75285;SDS011;63879;46.064;14.532;2023-02-03T07:24:44;22.43;;;14.30;;
75285;SDS011;63879;46.064;14.532;2023-02-03T07:27:10;24.60;;;14.65;;
75285;SDS011;63879;46.064;14.532;2023-02-03T07:29:35;27.50;;;15.45;;
75285;SDS011;63879;46.064;14.532;2023-02-03T07:32:01;26.87;;;15.07;;
75285;SDS011;63879;46.064;14.532;2023-02-03T07:34:26;25.55;;;14.60;;
75285;SDS011;63879;46.064;14.532;2023-02-03T07:36:52;29.33;;;15.40;;
75285;SDS011;63879;46.064;14.532;2023-02-03T07:39:17;29.25;;;15.27;;
75285;SDS011;63879;46.064;14.532;2023-02-03T07:41:43;27.83;;;16.07;;
75285;SDS011;63879;46.064;14.532;2023-02-03T07:44:08;27.07;;;15.63;;
75285;SDS011;63879;46.064;14.532;2023-02-03T07:46:34;27.15;;;15.15;;
75285;SDS011;63879;46.064;14.532;2023-02-03T07:49:03;23.67;;;14.20;;
75285;SDS011;63879;46.064;14.532;2023-02-03T07:51:29;26.35;;;14.88;;
75285;SDS011;63879;46.064;14.532;2023-02-03T07:53:55;26.30;;;13.45;;
75285;SDS011;63879;46.064;14.532;2023-02-03T07:56:21;23.98;;;14.57;;
75285;SDS011;63879;46.064;14.532;2023-02-03T07:58:46;26.42;;;15.90;;
75285;SDS011;63879;46.064;14.532;2023-02-03T08:01:12;26.47;;;15.43;;
75285;SDS011;63879;46.064;14.532;2023-02-03T08:03:39;31.75;;;16.55;;
75285;SDS011;63879;46.064;14.532;2023-02-03T08:06:05;24.05;;;14.07;;
75285;SDS011;63879;46.064;14.532;2023-02-03T08:08:30;24.85;;;13.82;;
75285;SDS011;63879;46.064;14.532;2023-02-03T08:10:56;27.23;;;14.50;;
75285;SDS011;63879;46.064;14.532;2023-02-03T08:13:21;24.42;;;13.85;;
75285;SDS011;63879;46.064;14.532;2023-02-03T08:15:47;22.67;;;13.75;;
75285;SDS011;63879;46.064;14.532;2023-02-03T08:18:12;26.30;;;14.40;;
75285;SDS011;63879;46.064;14.532;2023-02-03T08:20:38;25.35;;;12.07;;
75285;SDS011;63879;46.064;14.532;2023-02-03T08:23:03;23.52;;;11.48;;
75285;SDS011;63879;46.064;14.532;2023-02-03T08:25:28;32.38;;;15.23;;
75285;SDS011;63879;46.064;14.532;2023-02-03T08:27:54;27.00;;;14.43;;
75285;SDS011;63879;46.064;14.532;2023-02-03T08:30:19;23.17;;;14.02;;
75285;SDS011;63879;46.064;14.532;2023-02-03T08:32:46;21.42;;;13.98;;
75285;SDS011;63879;46.064;14.532;2023-02-03T08:35:11;25.07;;;13.03;;
75285;SDS011;63879;46.064;14.532;2023-02-03T08:37:36;21.38;;;12.57;;
75285;SDS011;63879;46.064;14.532;2023-02-03T08:40:03;22.73;;;13.15;;
75285;SDS011;63879;46.064;14.532;2023-02-03T08:42:29;20.60;;;11.77;;
75285;SDS011;63879;46.064;14.532;2023-02-03T08:44:54;22.17;;;11.63;;
75285;SDS011;63879;46.064;14.532;2023-02-03T08:47:19;22.88;;;12.20;;
75285;SDS011;63879;46.064;14.532;2023-02-03T08:49:45;18.50;;;10.93;;
75285;SDS011;63879;46.064;14.532;2023-02-03T08:52:10;16.45;;;10.00;;
75285;SDS011;63879;46.064;14.532;2023-02-03T08:54:37;16.70;;;9.95;;
75285;SDS011;63879;46.064;14.532;2023-02-03T08:57:03;16.65;;;9.52;;
75285;SDS011;63879;46.064;14.532;2023-02-03T08:59:28;15.75;;;9.55;;
75285;SDS011;63879;46.064;14.532;2023-02-03T09:01:54;16.45;;;8.52;;
75285;SDS011;63879;46.064;14.532;2023-02-03T09:04:19;17.85;;;9.95;;
75285;SDS011;63879;46.064;14.532;2023-02-03T09:06:49;17.42;;;9.63;;
75285;SDS011;63879;46.064;14.532;2023-02-03T09:09:15;20.98;;;11.50;;
75285;SDS011;63879;46.064;14.532;2023-02-03T09:11:41;17.33;;;9.57;;
75285;SDS011;63879;46.064;14.532;2023-02-03T09:14:06;16.83;;;11.50;;
75285;SDS011;63879;46.064;14.532;2023-02-03T09:16:32;14.73;;;9.75;;
75285;SDS011;63879;46.064;14.532;2023-02-03T09:18:58;15.55;;;10.07;;
75285;SDS011;63879;46.064;14.532;2023-02-03T09:21:23;19.43;;;10.90;;
75285;SDS011;63879;46.064;14.532;2023-02-03T09:23:48;17.58;;;11.45;;
75285;SDS011;63879;46.064;14.532;2023-02-03T09:26:14;18.60;;;11.68;;
75285;SDS011;63879;46.064;14.532;2023-02-03T09:28:40;16.85;;;10.18;;
75285;SDS011;63879;46.064;14.532;2023-02-03T09:31:07;17.60;;;10.07;;
75285;SDS011;63879;46.064;14.532;2023-02-03T09:33:34;17.42;;;12.80;;
75285;SDS011;63879;46.064;14.532;2023-02-03T09:36:00;16.33;;;8.85;;
75285;SDS011;63879;46.064;14.532;2023-02-03T09:38:26;17.45;;;10.10;;
75285;SDS011;63879;46.064;14.532;2023-02-03T09:40:53;17.17;;;9.75;;
75285;SDS011;63879;46.064;14.532;2023-02-03T09:43:45;15.50;;;10.20;;
75285;SDS011;63879;46.064;14.532;2023-02-03T09:46:16;19.77;;;11.20;;
75285;SDS011;63879;46.064;14.532;2023-02-03T09:48:48;17.85;;;11.20;;
75285;SDS011;63879;46.064;14.532;2023-02-03T09:51:19;18.15;;;10.57;;
75285;SDS011;63879;46.064;14.532;2023-02-03T09:53:47;19.80;;;10.75;;
75285;SDS011;63879;46.064;14.532;2023-02-03T09:56:24;18.80;;;10.07;;
75285;SDS011;63879;46.064;14.532;2023-02-03T09:58:51;16.95;;;10.80;;
75285;SDS011;63879;46.064;14.532;2023-02-03T10:01:17;17.90;;;10.75;;
75285;SDS011;63879;46.064;14.532;2023-02-03T10:03:56;16.95;;;10.50;;
75285;SDS011;63879;46.064;14.532;2023-02-03T10:06:30;18.27;;;10.18;;
75285;SDS011;63879;46.064;14.532;2023-02-03T10:09:20;17.35;;;9.90;;
75285;SDS011;63879;46.064;14.532;2023-02-03T10:11:53;19.92;;;12.00;;
75285;SDS011;63879;46.064;14.532;2023-02-03T10:22:18;15.02;;;8.35;;
75285;SDS011;63879;46.064;14.532;2023-02-03T10:24:56;16.58;;;9.45;;
75285;SDS011;63879;46.064;14.532;2023-02-03T10:27:41;19.17;;;9.55;;
75285;SDS011;63879;46.064;14.532;2023-02-03T10:30:28;17.98;;;10.82;;
75285;SDS011;63879;46.064;14.532;2023-02-03T10:33:09;14.30;;;8.98;;
75285;SDS011;63879;46.064;14.532;2023-02-03T10:35:52;15.63;;;9.75;;
75285;SDS011;63879;46.064;14.532;2023-02-03T10:40:51;16.35;;;10.13;;
75285;SDS011;63879;46.064;14.532;2023-02-03T10:43:17;18.35;;;9.02;;
75285;SDS011;63879;46.064;14.532;2023-02-03T10:46:01;15.07;;;9.65;;
75285;SDS011;63879;46.064;14.532;2023-02-03T10:48:26;16.07;;;10.47;;
75285;SDS011;63879;46.064;14.532;2023-02-03T10:50:51;16.83;;;10.50;;
75285;SDS011;63879;46.064;14.532;2023-02-03T10:55:49;19.90;;;10.23;;
75285;SDS011;63879;46.064;14.532;2023-02-03T10:58:18;16.58;;;9.32;;
75285;SDS011;63879;46.064;14.532;2023-02-03T11:00:53;19.38;;;10.75;;
75285;SDS011;63879;46.064;14.532;2023-02-03T11:03:28;18.63;;;11.48;;
75285;SDS011;63879;46.064;14.532;2023-02-03T11:08:34;17.30;;;9.75;;
75285;SDS011;63879;46.064;14.532;2023-02-03T11:11:01;20.95;;;10.32;;
75285;SDS011;63879;46.064;14.532;2023-02-03T11:13:31;20.05;;;11.13;;
75285;SDS011;63879;46.064;14.532;2023-02-03T11:18:25;22.35;;;13.38;;
75285;SDS011;63879;46.064;14.532;2023-02-03T11:20:56;22.00;;;9.93;;
75285;SDS011;63879;46.064;14.532;2023-02-03T11:23:22;19.25;;;11.32;;
75285;SDS011;63879;46.064;14.532;2023-02-03T11:25:48;16.75;;;11.27;;
75285;SDS011;63879;46.064;14.532;2023-02-03T11:28:13;17.38;;;9.60;;
75285;SDS011;63879;46.064;14.532;2023-02-03T11:30:39;18.25;;;10.95;;
75285;SDS011;63879;46.064;14.532;2023-02-03T11:33:15;24.07;;;13.30;;
75285;SDS011;63879;46.064;14.532;2023-02-03T11:35:52;19.95;;;10.18;;
75285;SDS011;63879;46.064;14.532;2023-02-03T11:38:33;19.27;;;11.45;;
75285;SDS011;63879;46.064;14.532;2023-02-03T11:41:03;18.55;;;10.20;;
75285;SDS011;63879;46.064;14.532;2023-02-03T11:43:28;16.58;;;10.90;;
75285;SDS011;63879;46.064;14.532;2023-02-03T11:45:58;17.00;;;11.27;;
75285;SDS011;63879;46.064;14.532;2023-02-03T11:56:48;19.65;;;11.93;;
75285;SDS011;63879;46.064;14.532;2023-02-03T12:07:23;19.63;;;12.80;;
75285;SDS011;63879;46.064;14.532;2023-02-03T12:10:12;17.95;;;11.80;;
75285;SDS011;63879;46.064;14.532;2023-02-03T12:13:00;19.58;;;10.63;;
75285;SDS011;63879;46.064;14.532;2023-02-03T12:15:54;20.40;;;10.82;;
75285;SDS011;63879;46.064;14.532;2023-02-03T12:26:40;17.55;;;9.82;;
75285;SDS011;63879;46.064;14.532;2023-02-03T12:31:43;15.32;;;7.53;;
75285;SDS011;63879;46.064;14.532;2023-02-03T12:34:12;20.27;;;9.43;;
75285;SDS011;63879;46.064;14.532;2023-02-03T12:36:41;11.73;;;7.28;;
75285;SDS011;63879;46.064;14.532;2023-02-03T12:41:54;12.60;;;6.93;;
75285;SDS011;63879;46.064;14.532;2023-02-03T12:44:38;13.98;;;8.00;;
75285;SDS011;63879;46.064;14.532;2023-02-03T12:47:30;11.93;;;7.45;;
75285;SDS011;63879;46.064;14.532;2023-02-03T12:50:03;13.65;;;8.07;;
75285;SDS011;63879;46.064;14.532;2023-02-03T12:52:39;14.15;;;7.90;;
75285;SDS011;63879;46.064;14.532;2023-02-03T12:57:57;12.80;;;7.45;;
75285;SDS011;63879;46.064;14.532;2023-02-03T13:00:45;12.85;;;6.88;;
75285;SDS011;63879;46.064;14.532;2023-02-03T13:06:11;11.30;;;5.90;;
75285;SDS011;63879;46.064;14.532;2023-02-03T13:08:55;14.13;;;8.27;;
75285;SDS011;63879;46.064;14.532;2023-02-03T13:11:42;14.63;;;6.15;;
75285;SDS011;63879;46.064;14.532;2023-02-03T13:17:04;11.30;;;6.75;;
75285;SDS011;63879;46.064;14.532;2023-02-03T13:19:52;13.18;;;8.40;;
75285;SDS011;63879;46.064;14.532;2023-02-03T13:22:19;9.20;;;5.57;;
75285;SDS011;63879;46.064;14.532;2023-02-03T13:25:14;13.55;;;6.28;;
75285;SDS011;63879;46.064;14.532;2023-02-03T13:30:45;12.82;;;7.50;;
75285;SDS011;63879;46.064;14.532;2023-02-03T13:41:28;10.38;;;7.00;;
75285;SDS011;63879;46.064;14.532;2023-02-03T13:44:01;14.73;;;7.93;;
75285;SDS011;63879;46.064;14.532;2023-02-03T13:46:28;14.15;;;7.82;;
75285;SDS011;63879;46.064;14.532;2023-02-03T13:48:59;15.80;;;7.28;;
75285;SDS011;63879;46.064;14.532;2023-02-03T13:51:26;13.02;;;7.20;;
75285;SDS011;63879;46.064;14.532;2023-02-03T13:54:11;14.75;;;7.70;;
75285;SDS011;63879;46.064;14.532;2023-02-03T13:56:41;12.80;;;7.38;;
75285;SDS011;63879;46.064;14.532;2023-02-03T14:01:38;13.20;;;6.15;;
75285;SDS011;63879;46.064;14.532;2023-02-03T14:04:08;14.27;;;7.18;;
75285;SDS011;63879;46.064;14.532;2023-02-03T14:06:54;17.10;;;8.75;;
75285;SDS011;63879;46.064;14.532;2023-02-03T14:25:47;15.25;;;7.85;;
75285;SDS011;63879;46.064;14.532;2023-02-03T14:28:19;15.00;;;7.97;;
75285;SDS011;63879;46.064;14.532;2023-02-03T14:31:02;15.82;;;8.80;;
75285;SDS011;63879;46.064;14.532;2023-02-03T14:38:52;12.68;;;7.68;;
75285;SDS011;63879;46.064;14.532;2023-02-03T14:41:21;18.67;;;8.23;;
75285;SDS011;63879;46.064;14.532;2023-02-03T14:44:00;14.90;;;8.60;;
75285;SDS011;63879;46.064;14.532;2023-02-03T14:46:42;14.15;;;7.18;;
75285;SDS011;63879;46.064;14.532;2023-02-03T14:55:02;16.73;;;9.43;;
75285;SDS011;63879;46.064;14.532;2023-02-03T14:57:42;18.67;;;8.98;;
75285;SDS011;63879;46.064;14.532;2023-02-03T15:07:56;17.85;;;8.98;;
75285;SDS011;63879;46.064;14.532;2023-02-03T15:10:23;16.00;;;8.63;;
75285;SDS011;63879;46.064;14.532;2023-02-03T15:12:52;13.35;;;8.43;;
75285;SDS011;63879;46.064;14.532;2023-02-03T15:15:19;17.50;;;8.63;;
75285;SDS011;63879;46.064;14.532;2023-02-03T15:17:51;16.20;;;8.98;;
75285;SDS011;63879;46.064;14.532;2023-02-03T15:22:46;16.58;;;9.05;;
75285;SDS011;63879;46.064;14.532;2023-02-03T15:25:15;16.70;;;9.20;;
75285;SDS011;63879;46.064;14.532;2023-02-03T15:27:42;16.05;;;9.52;;
75285;SDS011;63879;46.064;14.532;2023-02-03T15:30:22;18.27;;;10.05;;
75285;SDS011;63879;46.064;14.532;2023-02-03T15:35:35;20.52;;;10.63;;
75285;SDS011;63879;46.064;14.532;2023-02-03T15:38:03;20.42;;;9.35;;
75285;SDS011;63879;46.064;14.532;2023-02-03T15:40:34;18.52;;;10.15;;
75285;SDS011;63879;46.064;14.532;2023-02-03T15:43:14;18.48;;;9.40;;
75285;SDS011;63879;46.064;14.532;2023-02-03T15:46:15;23.70;;;10.63;;
75285;SDS011;63879;46.064;14.532;2023-02-03T15:48:53;17.23;;;10.45;;
75285;SDS011;63879;46.064;14.532;2023-02-03T15:54:02;20.73;;;9.88;;
75285;SDS011;63879;46.064;14.532;2023-02-03T15:56:35;18.10;;;10.80;;
75285;SDS011;63879;46.064;14.532;2023-02-03T15:59:04;17.85;;;7.70;;
75285;SDS011;63879;46.064;14.532;2023-02-03T16:01:38;17.85;;;9.77;;
75285;SDS011;63879;46.064;14.532;2023-02-03T16:04:07;17.88;;;9.95;;
75285;SDS011;63879;46.064;14.532;2023-02-03T16:06:34;17.65;;;9.20;;
75285;SDS011;63879;46.064;14.532;2023-02-03T16:09:02;21.27;;;10.65;;
75285;SDS011;63879;46.064;14.532;2023-02-03T16:14:02;15.95;;;8.88;;
75285;SDS011;63879;46.064;14.532;2023-02-03T16:19:19;17.77;;;9.15;;
75285;SDS011;63879;46.064;14.532;2023-02-03T16:29:52;15.25;;;9.35;;
75285;SDS011;63879;46.064;14.532;2023-02-03T16:32:37;22.48;;;10.88;;
75285;SDS011;63879;46.064;14.532;2023-02-03T16:35:22;17.10;;;11.18;;
75285;SDS011;63879;46.064;14.532;2023-02-03T16:38:15;18.08;;;11.30;;
75285;SDS011;63879;46.064;14.532;2023-02-03T16:40:59;21.58;;;9.30;;
75285;SDS011;63879;46.064;14.532;2023-02-03T16:43:44;19.63;;;9.85;;
75285;SDS011;63879;46.064;14.532;2023-02-03T16:46:28;20.65;;;10.75;;
75285;SDS011;63879;46.064;14.532;2023-02-03T16:49:22;19.08;;;10.48;;
75285;SDS011;63879;46.064;14.532;2023-02-03T16:52:06;21.27;;;10.52;;
75285;SDS011;63879;46.064;14.532;2023-02-03T16:54:32;19.85;;;9.40;;
75285;SDS011;63879;46.064;14.532;2023-02-03T16:56:57;18.13;;;11.23;;
75285;SDS011;63879;46.064;14.532;2023-02-03T16:59:23;20.07;;;10.97;;
75285;SDS011;63879;46.064;14.532;2023-02-03T17:01:49;20.23;;;10.40;;
75285;SDS011;63879;46.064;14.532;2023-02-03T17:04:14;19.23;;;9.83;;
75285;SDS011;63879;46.064;14.532;2023-02-03T17:06:40;20.08;;;10.30;;
75285;SDS011;63879;46.064;14.532;2023-02-03T17:09:06;23.33;;;10.27;;
75285;SDS011;63879;46.064;14.532;2023-02-03T17:11:31;25.08;;;11.13;;
75285;SDS011;63879;46.064;14.532;2023-02-03T17:13:57;23.10;;;11.45;;
75285;SDS011;63879;46.064;14.532;2023-02-03T17:16:23;26.38;;;13.10;;
75285;SDS011;63879;46.064;14.532;2023-02-03T17:19:04;21.00;;;12.07;;
75285;SDS011;63879;46.064;14.532;2023-02-03T17:21:30;22.88;;;12.30;;
75285;SDS011;63879;46.064;14.532;2023-02-03T17:23:56;23.75;;;12.07;;
75285;SDS011;63879;46.064;14.532;2023-02-03T17:26:22;25.83;;;13.10;;
75285;SDS011;63879;46.064;14.532;2023-02-03T17:28:48;23.83;;;12.70;;
75285;SDS011;63879;46.064;14.532;2023-02-03T17:31:14;25.75;;;11.52;;
75285;SDS011;63879;46.064;14.532;2023-02-03T17:33:41;21.45;;;12.52;;
75285;SDS011;63879;46.064;14.532;2023-02-03T17:36:08;21.15;;;12.35;;
75285;SDS011;63879;46.064;14.532;2023-02-03T17:38:45;24.95;;;12.93;;
75285;SDS011;63879;46.064;14.532;2023-02-03T17:41:15;21.50;;;12.50;;
75285;SDS011;63879;46.064;14.532;2023-02-03T17:43:42;25.05;;;12.85;;
75285;SDS011;63879;46.064;14.532;2023-02-03T17:46:08;20.42;;;11.73;;
75285;SDS011;63879;46.064;14.532;2023-02-03T17:48:35;24.00;;;13.13;;
75285;SDS011;63879;46.064;14.532;2023-02-03T17:51:05;21.38;;;11.20;;
75285;SDS011;63879;46.064;14.532;2023-02-03T17:53:30;22.70;;;11.68;;
75285;SDS011;63879;46.064;14.532;2023-02-03T17:55:56;21.35;;;11.70;;
75285;SDS011;63879;46.064;14.532;2023-02-03T17:58:26;23.47;;;13.03;;
75285;SDS011;63879;46.064;14.532;2023-02-03T18:00:52;24.30;;;12.50;;
75285;SDS011;63879;46.064;14.532;2023-02-03T18:03:17;22.63;;;12.07;;
75285;SDS011;63879;46.064;14.532;2023-02-03T18:05:51;24.43;;;12.53;;
75285;SDS011;63879;46.064;14.532;2023-02-03T18:08:22;26.00;;;14.40;;
75285;SDS011;63879;46.064;14.532;2023-02-03T18:10:47;22.33;;;12.75;;
75285;SDS011;63879;46.064;14.532;2023-02-03T18:13:13;23.83;;;13.63;;
75285;SDS011;63879;46.064;14.532;2023-02-03T18:15:38;24.48;;;12.25;;
75285;SDS011;63879;46.064;14.532;2023-02-03T18:18:03;26.73;;;14.93;;
75285;SDS011;63879;46.064;14.532;2023-02-03T18:20:29;29.55;;;14.07;;
75285;SDS011;63879;46.064;14.532;2023-02-03T18:22:55;26.83;;;14.63;;
75285;SDS011;63879;46.064;14.532;2023-02-03T18:25:20;25.50;;;12.87;;
75285;SDS011;63879;46.064;14.532;2023-02-03T18:27:48;26.77;;;14.48;;
75285;SDS011;63879;46.064;14.532;2023-02-03T18:30:15;26.15;;;13.57;;
75285;SDS011;63879;46.064;14.532;2023-02-03T18:32:42;23.58;;;13.98;;
75285;SDS011;63879;46.064;14.532;2023-02-03T18:35:08;26.55;;;14.23;;
75285;SDS011;63879;46.064;14.532;2023-02-03T18:40:43;26.73;;;14.70;;
75285;SDS011;63879;46.064;14.532;2023-02-03T18:43:09;30.20;;;14.60;;
75285;SDS011;63879;46.064;14.532;2023-02-03T18:45:36;25.70;;;14.57;;
75285;SDS011;63879;46.064;14.532;2023-02-03T18:48:07;26.08;;;14.93;;
75285;SDS011;63879;46.064;14.532;2023-02-03T18:50:32;25.40;;;14.48;;
75285;SDS011;63879;46.064;14.532;2023-02-03T18:52:58;30.80;;;15.65;;
75285;SDS011;63879;46.064;14.532;2023-02-03T18:55:23;28.35;;;14.60;;
75285;SDS011;63879;46.064;14.532;2023-02-03T18:57:48;26.90;;;15.48;;
75285;SDS011;63879;46.064;14.532;2023-02-03T19:00:14;25.88;;;14.90;;
75285;SDS011;63879;46.064;14.532;2023-02-03T19:02:40;28.63;;;15.02;;
75285;SDS011;63879;46.064;14.532;2023-02-03T19:05:05;22.70;;;12.32;;
75285;SDS011;63879;46.064;14.532;2023-02-03T19:07:32;26.80;;;15.30;;
75285;SDS011;63879;46.064;14.532;2023-02-03T19:09:57;22.17;;;12.18;;
75285;SDS011;63879;46.064;14.532;2023-02-03T19:12:23;25.13;;;15.48;;
75285;SDS011;63879;46.064;14.532;2023-02-03T19:14:50;25.90;;;15.10;;
75285;SDS011;63879;46.064;14.532;2023-02-03T19:20:06;26.88;;;13.75;;
75285;SDS011;63879;46.064;14.532;2023-02-03T19:22:32;25.63;;;13.55;;
75285;SDS011;63879;46.064;14.532;2023-02-03T19:24:57;29.10;;;14.13;;
75285;SDS011;63879;46.064;14.532;2023-02-03T19:27:23;23.23;;;11.70;;
75285;SDS011;63879;46.064;14.532;2023-02-03T19:29:49;25.02;;;13.43;;
75285;SDS011;63879;46.064;14.532;2023-02-03T19:32:14;30.63;;;16.48;;
75285;SDS011;63879;46.064;14.532;2023-02-03T19:34:40;31.50;;;14.88;;
75285;SDS011;63879;46.064;14.532;2023-02-03T19:37:05;32.13;;;16.43;;
75285;SDS011;63879;46.064;14.532;2023-02-03T19:39:40;27.70;;;15.40;;
75285;SDS011;63879;46.064;14.532;2023-02-03T19:42:06;31.08;;;16.15;;
75285;SDS011;63879;46.064;14.532;2023-02-03T19:44:31;27.30;;;15.63;;
75285;SDS011;63879;46.064;14.532;2023-02-03T19:46:56;32.07;;;16.37;;
75285;SDS011;63879;46.064;14.532;2023-02-03T19:49:22;29.80;;;15.23;;
75285;SDS011;63879;46.064;14.532;2023-02-03T19:51:48;27.73;;;15.15;;
75285;SDS011;63879;46.064;14.532;2023-02-03T19:54:14;27.95;;;15.05;;
75285;SDS011;63879;46.064;14.532;2023-02-03T19:56:40;26.08;;;14.38;;
75285;SDS011;63879;46.064;14.532;2023-02-03T19:59:22;27.63;;;15.20;;
75285;SDS011;63879;46.064;14.532;2023-02-03T20:01:47;31.98;;;15.38;;
75285;SDS011;63879;46.064;14.532;2023-02-03T20:04:13;26.05;;;15.65;;
75285;SDS011;63879;46.064;14.532;2023-02-03T20:06:39;26.15;;;14.32;;
75285;SDS011;63879;46.064;14.532;2023-02-03T20:09:04;26.10;;;15.80;;
75285;SDS011;63879;46.064;14.532;2023-02-03T20:11:30;29.00;;;15.90;;
75285;SDS011;63879;46.064;14.532;2023-02-03T20:13:56;29.58;;;15.82;;
75285;SDS011;63879;46.064;14.532;2023-02-03T20:16:21;28.60;;;14.27;;
75285;SDS011;63879;46.064;14.532;2023-02-03T20:18:47;26.47;;;14.77;;
75285;SDS011;63879;46.064;14.532;2023-02-03T20:21:16;29.17;;;15.98;;
75285;SDS011;63879;46.064;14.532;2023-02-03T20:23:41;27.70;;;15.75;;
75285;SDS011;63879;46.064;14.532;2023-02-03T20:26:07;27.65;;;14.85;;
75285;SDS011;63879;46.064;14.532;2023-02-03T20:28:32;27.17;;;15.40;;
75285;SDS011;63879;46.064;14.532;2023-02-03T20:30:58;26.30;;;15.03;;
75285;SDS011;63879;46.064;14.532;2023-02-03T20:33:25;27.65;;;15.20;;
75285;SDS011;63879;46.064;14.532;2023-02-03T20:35:51;28.45;;;15.18;;
75285;SDS011;63879;46.064;14.532;2023-02-03T20:38:17;27.38;;;14.57;;
75285;SDS011;63879;46.064;14.532;2023-02-03T20:40:43;23.95;;;13.65;;
75285;SDS011;63879;46.064;14.532;2023-02-03T20:43:19;22.55;;;12.43;;
75285;SDS011;63879;46.064;14.532;2023-02-03T20:45:46;29.60;;;13.15;;
75285;SDS011;63879;46.064;14.532;2023-02-03T20:48:13;27.17;;;13.95;;
75285;SDS011;63879;46.064;14.532;2023-02-03T20:50:40;24.08;;;12.35;;
75285;SDS011;63879;46.064;14.532;2023-02-03T20:53:15;23.38;;;14.13;;
75285;SDS011;63879;46.064;14.532;2023-02-03T20:55:42;26.00;;;12.60;;
75285;SDS011;63879;46.064;14.532;2023-02-03T20:58:43;27.52;;;14.55;;
75285;SDS011;63879;46.064;14.532;2023-02-03T21:01:05;23.15;;;12.85;;
75285;SDS011;63879;46.064;14.532;2023-02-03T21:03:37;25.25;;;13.65;;
75285;SDS011;63879;46.064;14.532;2023-02-03T21:06:21;27.25;;;13.88;;
75285;SDS011;63879;46.064;14.532;2023-02-03T21:08:47;24.10;;;13.38;;
75285;SDS011;63879;46.064;14.532;2023-02-03T21:11:13;26.55;;;13.95;;
75285;SDS011;63879;46.064;14.532;2023-02-03T21:13:48;26.80;;;13.93;;
75285;SDS011;63879;46.064;14.532;2023-02-03T21:16:21;24.48;;;14.00;;
75285;SDS011;63879;46.064;14.532;2023-02-03T21:21:35;22.35;;;13.40;;
75285;SDS011;63879;46.064;14.532;2023-02-03T21:26:48;27.85;;;14.82;;
75285;SDS011;63879;46.064;14.532;2023-02-03T21:29:22;25.05;;;13.20;;
75285;SDS011;63879;46.064;14.532;2023-02-03T21:31:51;23.20;;;13.07;;
75285;SDS011;63879;46.064;14.532;2023-02-03T21:36:56;25.85;;;13.43;;
75285;SDS011;63879;46.064;14.532;2023-02-03T21:39:30;25.23;;;13.23;;
75285;SDS011;63879;46.064;14.532;2023-02-03T21:41:59;26.95;;;15.48;;
75285;SDS011;63879;46.064;14.532;2023-02-03T21:44:32;30.33;;;14.52;;
75285;SDS011;63879;46.064;14.532;2023-02-03T21:47:12;25.42;;;13.68;;
75285;SDS011;63879;46.064;14.532;2023-02-03T21:52:10;24.97;;;11.37;;
75285;SDS011;63879;46.064;14.532;2023-02-03T21:54:37;29.65;;;14.65;;
75285;SDS011;63879;46.064;14.532;2023-02-03T21:57:06;21.20;;;13.05;;
75285;SDS011;63879;46.064;14.532;2023-02-03T21:59:37;24.73;;;13.60;;
